sensor_id;sensor_type;location;lat;lon;timestamp;pressure;altitude;pressure_sealevel;temperature;humidity
13235;BME280;6683;48.506;9.050;2023-12-07T00:01:59;98463.53;;;4.39;74.77
13235;BME280;6683;48.506;9.050;2023-12-07T00:05:04;98461.16;;;4.36;75.38
13235;BME280;6683;48.506;9.050;2023-12-07T00:08:08;98461.47;;;4.33;75.28
13235;BME280;6683;48.506;9.050;2023-12-07T00:11:11;98457.34;;;4.31;74.76
13235;BME280;6683;48.506;9.050;2023-12-07T00:14:13;98466.44;;;4.27;75.42
13235;BME280;6683;48.506;9.050;2023-12-07T00:17:15;98474.94;;;4.29;75.67
13235;BME280;6683;48.506;9.050;2023-12-07T00:20:19;98483.63;;;4.29;75.32
13235;BME280;6683;48.506;9.050;2023-12-07T00:23:21;98478.50;;;4.28;75.48
13235;BME280;6683;48.506;9.050;2023-12-07T00:26:24;98482.78;;;4.29;75.54
13235;BME280;6683;48.506;9.050;2023-12-07T00:29:26;98481.97;;;4.28;75.17
13235;BME280;6683;48.506;9.050;2023-12-07T00:32:28;98481.13;;;4.28;75.48
13235;BME280;6683;48.506;9.050;2023-12-07T00:35:32;98484.56;;;4.28;75.65
13235;BME280;6683;48.506;9.050;2023-12-07T00:38:34;98489.53;;;4.31;75.85
13235;BME280;6683;48.506;9.050;2023-12-07T00:41:36;98491.84;;;4.34;75.63
13235;BME280;6683;48.506;9.050;2023-12-07T00:44:39;98484.56;;;4.38;75.71
13235;BME280;6683;48.506;9.050;2023-12-07T00:47:42;98479.06;;;4.41;75.53
13235;BME280;6683;48.506;9.050;2023-12-07T00:50:45;98482.22;;;4.44;75.85
13235;BME280;6683;48.506;9.050;2023-12-07T00:53:48;98483.84;;;4.45;75.55
13235;BME280;6683;48.506;9.050;2023-12-07T00:56:50;98476.00;;;4.45;75.69
13235;BME280;6683;48.506;9.050;2023-12-07T00:59:52;98477.69;;;4.46;75.59
13235;BME280;6683;48.506;9.050;2023-12-07T01:02:54;98481.78;;;4.49;75.45
13235;BME280;6683;48.506;9.050;2023-12-07T01:05:57;98473.81;;;4.50;75.33
13235;BME280;6683;48.506;9.050;2023-12-07T01:08:59;98484.81;;;4.54;75.69
13235;BME280;6683;48.506;9.050;2023-12-07T01:12:01;98483.97;;;4.53;75.31
13235;BME280;6683;48.506;9.050;2023-12-07T01:15:05;98480.00;;;4.49;75.23
13235;BME280;6683;48.506;9.050;2023-12-07T01:18:07;98485.63;;;4.45;75.04
13235;BME280;6683;48.506;9.050;2023-12-07T01:21:10;98482.34;;;4.43;75.49
13235;BME280;6683;48.506;9.050;2023-12-07T01:24:13;98483.19;;;4.43;75.56
13235;BME280;6683;48.506;9.050;2023-12-07T01:27:15;98495.28;;;4.44;74.97
13235;BME280;6683;48.506;9.050;2023-12-07T01:30:17;98487.56;;;4.43;75.38
13235;BME280;6683;48.506;9.050;2023-12-07T01:33:19;98490.34;;;4.41;74.83
13235;BME280;6683;48.506;9.050;2023-12-07T01:36:24;98487.19;;;4.38;75.10
13235;BME280;6683;48.506;9.050;2023-12-07T01:39:27;98496.97;;;4.36;75.49
13235;BME280;6683;48.506;9.050;2023-12-07T01:42:29;98497.06;;;4.34;75.23
13235;BME280;6683;48.506;9.050;2023-12-07T01:45:31;98506.56;;;4.35;75.16
13235;BME280;6683;48.506;9.050;2023-12-07T01:48:33;98508.78;;;4.30;74.71
13235;BME280;6683;48.506;9.050;2023-12-07T01:51:37;98508.22;;;4.27;74.63
13235;BME280;6683;48.506;9.050;2023-12-07T01:54:40;98515.38;;;4.25;75.50
13235;BME280;6683;48.506;9.050;2023-12-07T01:57:44;98504.50;;;4.20;75.01
13235;BME280;6683;48.506;9.050;2023-12-07T02:00:47;98514.28;;;4.18;75.10
13235;BME280;6683;48.506;9.050;2023-12-07T02:03:50;98513.34;;;4.19;75.82
13235;BME280;6683;48.506;9.050;2023-12-07T02:06:54;98514.97;;;4.20;75.78
13235;BME280;6683;48.506;9.050;2023-12-07T02:09:58;98514.03;;;4.21;75.51
13235;BME280;6683;48.506;9.050;2023-12-07T02:13:00;98519.38;;;4.19;74.81
13235;BME280;6683;48.506;9.050;2023-12-07T02:16:09;98519.50;;;4.18;75.56
13235;BME280;6683;48.506;9.050;2023-12-07T02:19:33;98511.66;;;4.18;76.26
13235;BME280;6683;48.506;9.050;2023-12-07T02:22:49;98506.75;;;4.15;75.58
13235;BME280;6683;48.506;9.050;2023-12-07T02:25:54;98501.38;;;4.16;75.81
13235;BME280;6683;48.506;9.050;2023-12-07T02:28:59;98504.66;;;4.18;75.40
13235;BME280;6683;48.506;9.050;2023-12-07T02:32:01;98509.88;;;4.18;75.66
13235;BME280;6683;48.506;9.050;2023-12-07T02:35:04;98507.13;;;4.20;75.49
13235;BME280;6683;48.506;9.050;2023-12-07T02:38:07;98513.88;;;4.22;75.51
13235;BME280;6683;48.506;9.050;2023-12-07T02:41:10;98512.09;;;4.23;75.80
13235;BME280;6683;48.506;9.050;2023-12-07T02:44:14;98513.03;;;4.22;75.12
13235;BME280;6683;48.506;9.050;2023-12-07T02:47:16;98513.19;;;4.20;75.69
13235;BME280;6683;48.506;9.050;2023-12-07T02:50:19;98504.66;;;4.18;75.08
13235;BME280;6683;48.506;9.050;2023-12-07T02:53:21;98505.75;;;4.16;75.25
13235;BME280;6683;48.506;9.050;2023-12-07T02:56:23;98505.91;;;4.14;75.42
13235;BME280;6683;48.506;9.050;2023-12-07T02:59:26;98506.31;;;4.10;75.29
13235;BME280;6683;48.506;9.050;2023-12-07T03:02:29;98510.03;;;4.07;74.97
13235;BME280;6683;48.506;9.050;2023-12-07T03:05:31;98511.00;;;4.06;75.52
13235;BME280;6683;48.506;9.050;2023-12-07T03:08:33;98516.38;;;4.04;75.16
13235;BME280;6683;48.506;9.050;2023-12-07T03:11:35;98518.28;;;4.02;75.01
13235;BME280;6683;48.506;9.050;2023-12-07T03:14:39;98523.09;;;3.97;74.79
13235;BME280;6683;48.506;9.050;2023-12-07T03:17:41;98523.50;;;3.93;74.54
13235;BME280;6683;48.506;9.050;2023-12-07T03:20:44;98519.66;;;3.87;74.69
13235;BME280;6683;48.506;9.050;2023-12-07T03:23:46;98521.16;;;3.80;74.30
13235;BME280;6683;48.506;9.050;2023-12-07T03:26:50;98518.41;;;3.72;74.89
13235;BME280;6683;48.506;9.050;2023-12-07T03:29:53;98523.34;;;3.66;74.65
13235;BME280;6683;48.506;9.050;2023-12-07T03:32:55;98528.00;;;3.62;74.96
13235;BME280;6683;48.506;9.050;2023-12-07T03:35:57;98533.63;;;3.58;74.65
13235;BME280;6683;48.506;9.050;2023-12-07T03:38:59;98520.28;;;3.51;74.76
13235;BME280;6683;48.506;9.050;2023-12-07T03:42:01;98528.66;;;3.45;74.90
13235;BME280;6683;48.506;9.050;2023-12-07T03:45:08;98524.91;;;3.38;74.90
13235;BME280;6683;48.506;9.050;2023-12-07T03:48:10;98535.78;;;3.34;74.79
13235;BME280;6683;48.506;9.050;2023-12-07T03:51:14;98536.03;;;3.31;75.26
13235;BME280;6683;48.506;9.050;2023-12-07T03:54:17;98538.88;;;3.28;74.67
13235;BME280;6683;48.506;9.050;2023-12-07T03:57:19;98538.19;;;3.25;75.01
13235;BME280;6683;48.506;9.050;2023-12-07T04:00:23;98535.88;;;3.22;74.48
13235;BME280;6683;48.506;9.050;2023-12-07T04:03:25;98543.84;;;3.21;74.40
13235;BME280;6683;48.506;9.050;2023-12-07T04:06:27;98536.94;;;3.20;75.26
13235;BME280;6683;48.506;9.050;2023-12-07T04:09:29;98542.31;;;3.18;74.67
13235;BME280;6683;48.506;9.050;2023-12-07T04:12:32;98547.78;;;3.15;74.61
13235;BME280;6683;48.506;9.050;2023-12-07T04:15:35;98548.16;;;3.11;74.48
13235;BME280;6683;48.506;9.050;2023-12-07T04:18:37;98559.69;;;3.08;74.63
13235;BME280;6683;48.506;9.050;2023-12-07T04:21:40;98552.81;;;3.07;74.65
13235;BME280;6683;48.506;9.050;2023-12-07T04:24:42;98553.78;;;3.06;74.89
13235;BME280;6683;48.506;9.050;2023-12-07T04:27:44;98557.47;;;3.04;74.94
13235;BME280;6683;48.506;9.050;2023-12-07T04:30:47;98555.81;;;3.03;74.79
13235;BME280;6683;48.506;9.050;2023-12-07T04:33:49;98557.03;;;2.99;74.71
13235;BME280;6683;48.506;9.050;2023-12-07T04:36:51;98560.63;;;2.98;74.73
13235;BME280;6683;48.506;9.050;2023-12-07T04:39:53;98560.72;;;2.96;74.90
13235;BME280;6683;48.506;9.050;2023-12-07T04:42:56;98559.09;;;2.95;75.02
13235;BME280;6683;48.506;9.050;2023-12-07T04:45:59;98558.25;;;2.95;74.55
13235;BME280;6683;48.506;9.050;2023-12-07T04:49:01;98555.78;;;2.93;74.82
13235;BME280;6683;48.506;9.050;2023-12-07T04:52:04;98553.31;;;2.92;74.51
13235;BME280;6683;48.506;9.050;2023-12-07T04:55:07;98567.28;;;2.91;74.41
13235;BME280;6683;48.506;9.050;2023-12-07T04:58:09;98563.06;;;2.90;74.69
13235;BME280;6683;48.506;9.050;2023-12-07T05:01:13;98558.91;;;2.87;74.34
13235;BME280;6683;48.506;9.050;2023-12-07T05:04:15;98554.91;;;2.83;74.69
13235;BME280;6683;48.506;9.050;2023-12-07T05:07:17;98558.59;;;2.81;74.10
13235;BME280;6683;48.506;9.050;2023-12-07T05:10:19;98571.06;;;2.77;73.92
13235;BME280;6683;48.506;9.050;2023-12-07T05:13:21;98568.72;;;2.74;74.29
13235;BME280;6683;48.506;9.050;2023-12-07T05:16:25;98574.16;;;2.71;74.09
13235;BME280;6683;48.506;9.050;2023-12-07T05:19:27;98571.84;;;2.68;74.43
13235;BME280;6683;48.506;9.050;2023-12-07T05:22:29;98572.91;;;2.66;74.32
13235;BME280;6683;48.506;9.050;2023-12-07T05:25:32;98581.69;;;2.65;74.54
13235;BME280;6683;48.506;9.050;2023-12-07T05:28:35;98578.50;;;2.61;74.82
13235;BME280;6683;48.506;9.050;2023-12-07T05:31:40;98581.38;;;2.58;74.29
13235;BME280;6683;48.506;9.050;2023-12-07T05:34:42;98577.22;;;2.56;74.15
13235;BME280;6683;48.506;9.050;2023-12-07T05:37:44;98587.09;;;2.52;73.85
13235;BME280;6683;48.506;9.050;2023-12-07T05:40:46;98581.19;;;2.50;73.97
13235;BME280;6683;48.506;9.050;2023-12-07T05:43:48;98577.19;;;2.46;74.33
13235;BME280;6683;48.506;9.050;2023-12-07T05:46:51;98574.25;;;2.39;74.31
13235;BME280;6683;48.506;9.050;2023-12-07T05:49:55;98565.84;;;2.36;74.15
13235;BME280;6683;48.506;9.050;2023-12-07T05:52:58;98579.13;;;2.33;74.21
13235;BME280;6683;48.506;9.050;2023-12-07T05:56:01;98576.75;;;2.30;73.84
13235;BME280;6683;48.506;9.050;2023-12-07T05:59:03;98570.84;;;2.28;74.54
13235;BME280;6683;48.506;9.050;2023-12-07T06:02:07;98561.50;;;2.25;74.36
13235;BME280;6683;48.506;9.050;2023-12-07T06:05:09;98553.00;;;2.23;74.54
13235;BME280;6683;48.506;9.050;2023-12-07T06:08:11;98553.97;;;2.22;74.67
13235;BME280;6683;48.506;9.050;2023-12-07T06:11:13;98557.41;;;2.23;74.49
13235;BME280;6683;48.506;9.050;2023-12-07T06:14:16;98556.56;;;2.22;74.23
13235;BME280;6683;48.506;9.050;2023-12-07T06:17:20;98544.63;;;2.20;74.21
13235;BME280;6683;48.506;9.050;2023-12-07T06:20:22;98550.38;;;2.23;74.72
13235;BME280;6683;48.506;9.050;2023-12-07T06:23:24;98549.59;;;2.23;74.09
13235;BME280;6683;48.506;9.050;2023-12-07T06:26:26;98551.50;;;2.21;74.48
13235;BME280;6683;48.506;9.050;2023-12-07T06:29:28;98556.69;;;2.21;74.41
13235;BME280;6683;48.506;9.050;2023-12-07T06:32:32;98562.72;;;2.21;74.62
13235;BME280;6683;48.506;9.050;2023-12-07T06:35:34;98567.91;;;2.21;74.48
13235;BME280;6683;48.506;9.050;2023-12-07T06:38:37;98574.09;;;2.20;74.20
13235;BME280;6683;48.506;9.050;2023-12-07T06:41:39;98579.31;;;2.20;74.20
13235;BME280;6683;48.506;9.050;2023-12-07T06:44:47;98576.94;;;2.17;74.40
13235;BME280;6683;48.506;9.050;2023-12-07T06:47:51;98582.28;;;2.16;74.17
13235;BME280;6683;48.506;9.050;2023-12-07T06:50:54;98576.38;;;2.14;74.61
13235;BME280;6683;48.506;9.050;2023-12-07T06:53:56;98579.91;;;2.13;74.51
13235;BME280;6683;48.506;9.050;2023-12-07T06:56:58;98583.47;;;2.12;74.79
13235;BME280;6683;48.506;9.050;2023-12-07T07:00:00;98581.72;;;2.12;74.93
13235;BME280;6683;48.506;9.050;2023-12-07T07:03:07;98580.63;;;2.15;75.47
13235;BME280;6683;48.506;9.050;2023-12-07T07:06:09;98581.22;;;2.18;75.08
13235;BME280;6683;48.506;9.050;2023-12-07T07:09:12;98582.59;;;2.22;75.14
13235;BME280;6683;48.506;9.050;2023-12-07T07:12:16;98587.81;;;2.22;74.76
13235;BME280;6683;48.506;9.050;2023-12-07T07:15:18;98579.16;;;2.22;74.44
13235;BME280;6683;48.506;9.050;2023-12-07T07:18:22;98583.81;;;2.18;74.29
13235;BME280;6683;48.506;9.050;2023-12-07T07:21:26;98584.03;;;2.15;74.82
13235;BME280;6683;48.506;9.050;2023-12-07T07:24:28;98588.56;;;2.13;74.93
13235;BME280;6683;48.506;9.050;2023-12-07T07:27:30;98586.09;;;2.12;74.73
13235;BME280;6683;48.506;9.050;2023-12-07T07:30:32;98586.09;;;2.12;74.61
13235;BME280;6683;48.506;9.050;2023-12-07T07:33:35;98589.53;;;2.12;74.98
13235;BME280;6683;48.506;9.050;2023-12-07T07:36:37;98584.03;;;2.15;74.60
13235;BME280;6683;48.506;9.050;2023-12-07T07:39:40;98598.03;;;2.14;74.28
13235;BME280;6683;48.506;9.050;2023-12-07T07:42:42;98591.53;;;2.09;74.20
13235;BME280;6683;48.506;9.050;2023-12-07T07:45:44;98596.28;;;2.04;74.16
13235;BME280;6683;48.506;9.050;2023-12-07T07:48:48;98598.56;;;1.97;73.86
13235;BME280;6683;48.506;9.050;2023-12-07T07:51:50;98595.75;;;1.89;74.11
13235;BME280;6683;48.506;9.050;2023-12-07T07:54:53;98595.53;;;1.81;74.00
13235;BME280;6683;48.506;9.050;2023-12-07T07:57:55;98601.66;;;1.80;74.00
13235;BME280;6683;48.506;9.050;2023-12-07T08:00:57;98598.63;;;1.75;73.63
13235;BME280;6683;48.506;9.050;2023-12-07T08:04:00;98592.13;;;1.70;73.88
13235;BME280;6683;48.506;9.050;2023-12-07T08:07:03;98589.88;;;1.65;73.82
13235;BME280;6683;48.506;9.050;2023-12-07T08:10:06;98585.06;;;1.60;73.96
13235;BME280;6683;48.506;9.050;2023-12-07T08:13:09;98592.03;;;1.60;74.11
13235;BME280;6683;48.506;9.050;2023-12-07T08:16:11;98586.81;;;1.60;74.37
13235;BME280;6683;48.506;9.050;2023-12-07T08:19:15;98577.34;;;1.59;74.53
13235;BME280;6683;48.506;9.050;2023-12-07T08:22:17;98584.94;;;1.62;74.75
13235;BME280;6683;48.506;9.050;2023-12-07T08:25:19;98584.66;;;1.65;74.78
13235;BME280;6683;48.506;9.050;2023-12-07T08:28:22;98583.84;;;1.65;74.21
13235;BME280;6683;48.506;9.050;2023-12-07T08:31:24;98593.31;;;1.66;74.67
13235;BME280;6683;48.506;9.050;2023-12-07T08:34:28;98594.84;;;1.68;74.83
13235;BME280;6683;48.506;9.050;2023-12-07T08:37:31;98599.69;;;1.73;75.02
13235;BME280;6683;48.506;9.050;2023-12-07T08:40:33;98595.06;;;1.76;74.94
13235;BME280;6683;48.506;9.050;2023-12-07T08:43:35;98587.59;;;1.83;75.18
13235;BME280;6683;48.506;9.050;2023-12-07T08:46:37;98604.63;;;1.87;74.99
13235;BME280;6683;48.506;9.050;2023-12-07T08:49:40;98598.34;;;1.89;75.00
13235;BME280;6683;48.506;9.050;2023-12-07T08:52:42;98595.63;;;1.91;74.73
13235;BME280;6683;48.506;9.050;2023-12-07T08:55:45;98592.06;;;1.92;74.62
13235;BME280;6683;48.506;9.050;2023-12-07T08:58:47;98575.06;;;1.88;74.53
13235;BME280;6683;48.506;9.050;2023-12-07T09:01:49;98571.63;;;1.87;74.74
13235;BME280;6683;48.506;9.050;2023-12-07T09:04:53;98564.75;;;1.86;75.02
13235;BME280;6683;48.506;9.050;2023-12-07T09:07:55;98579.16;;;1.90;75.04
13235;BME280;6683;48.506;9.050;2023-12-07T09:10:58;98573.72;;;1.93;75.17
13235;BME280;6683;48.506;9.050;2023-12-07T09:14:00;98566.13;;;2.01;75.37
13235;BME280;6683;48.506;9.050;2023-12-07T09:17:02;98575.19;;;2.07;75.11
13235;BME280;6683;48.506;9.050;2023-12-07T09:20:08;98589.53;;;2.12;75.18
13235;BME280;6683;48.506;9.050;2023-12-07T09:23:13;98581.81;;;2.11;74.66
13235;BME280;6683;48.506;9.050;2023-12-07T09:26:15;98573.91;;;2.12;75.12
13235;BME280;6683;48.506;9.050;2023-12-07T09:29:17;98568.19;;;2.18;74.96
13235;BME280;6683;48.506;9.050;2023-12-07T09:32:19;98567.69;;;2.24;74.93
13235;BME280;6683;48.506;9.050;2023-12-07T09:35:23;98572.38;;;2.30;75.31
13235;BME280;6683;48.506;9.050;2023-12-07T09:38:25;98561.47;;;2.36;74.97
13235;BME280;6683;48.506;9.050;2023-12-07T09:41:28;98560.41;;;2.39;75.25
13235;BME280;6683;48.506;9.050;2023-12-07T09:44:30;98565.94;;;2.46;75.43
13235;BME280;6683;48.506;9.050;2023-12-07T09:47:34;98557.47;;;2.53;75.65
13235;BME280;6683;48.506;9.050;2023-12-07T09:50:40;98560.38;;;2.60;75.36
13235;BME280;6683;48.506;9.050;2023-12-07T09:53:43;98552.19;;;2.64;74.97
13235;BME280;6683;48.506;9.050;2023-12-07T09:56:47;98545.63;;;2.70;75.35
13235;BME280;6683;48.506;9.050;2023-12-07T09:59:49;98539.34;;;2.72;75.13
13235;BME280;6683;48.506;9.050;2023-12-07T10:02:51;98536.34;;;2.77;75.47
13235;BME280;6683;48.506;9.050;2023-12-07T10:05:59;98539.28;;;2.83;75.12
13235;BME280;6683;48.506;9.050;2023-12-07T10:09:04;98534.09;;;2.93;75.27
13235;BME280;6683;48.506;9.050;2023-12-07T10:12:07;98526.44;;;3.01;75.33
13235;BME280;6683;48.506;9.050;2023-12-07T10:15:12;98522.50;;;3.06;75.06
13235;BME280;6683;48.506;9.050;2023-12-07T10:18:23;98514.84;;;3.14;75.03
13235;BME280;6683;48.506;9.050;2023-12-07T10:21:32;98514.00;;;3.14;75.25
13235;BME280;6683;48.506;9.050;2023-12-07T10:24:35;98502.22;;;3.19;75.68
13235;BME280;6683;48.506;9.050;2023-12-07T10:27:40;98489.75;;;3.23;75.13
13235;BME280;6683;48.506;9.050;2023-12-07T10:30:43;98487.16;;;3.33;76.23
13235;BME280;6683;48.506;9.050;2023-12-07T10:33:48;98483.59;;;3.43;75.91
13235;BME280;6683;48.506;9.050;2023-12-07T10:36:52;98494.78;;;3.64;75.75
13235;BME280;6683;48.506;9.050;2023-12-07T10:39:54;98496.41;;;3.84;76.03
13235;BME280;6683;48.506;9.050;2023-12-07T10:42:57;98488.59;;;4.03;76.25
13235;BME280;6683;48.506;9.050;2023-12-07T10:46:01;98483.22;;;4.15;75.83
13235;BME280;6683;48.506;9.050;2023-12-07T10:49:05;98479.09;;;4.31;76.13
13235;BME280;6683;48.506;9.050;2023-12-07T10:52:13;98473.53;;;4.53;75.98
13235;BME280;6683;48.506;9.050;2023-12-07T10:55:20;98464.41;;;4.67;76.06
13235;BME280;6683;48.506;9.050;2023-12-07T10:58:24;98447.41;;;4.90;75.81
13235;BME280;6683;48.506;9.050;2023-12-07T11:01:27;98440.06;;;5.38;76.24
13235;BME280;6683;48.506;9.050;2023-12-07T11:04:31;98436.38;;;5.94;75.88
13235;BME280;6683;48.506;9.050;2023-12-07T11:07:45;98433.19;;;6.51;75.80
13235;BME280;6683;48.506;9.050;2023-12-07T11:10:58;98425.06;;;6.96;74.10
13235;BME280;6683;48.506;9.050;2023-12-07T11:14:07;98416.31;;;7.37;73.91
13235;BME280;6683;48.506;9.050;2023-12-07T11:17:12;98412.44;;;7.81;72.89
13235;BME280;6683;48.506;9.050;2023-12-07T11:20:20;98407.19;;;8.22;72.16
13235;BME280;6683;48.506;9.050;2023-12-07T11:23:23;98398.09;;;8.56;71.33
13235;BME280;6683;48.506;9.050;2023-12-07T11:26:26;98386.16;;;8.84;70.99
13235;BME280;6683;48.506;9.050;2023-12-07T11:29:29;98389.06;;;9.28;70.72
13235;BME280;6683;48.506;9.050;2023-12-07T11:32:32;98388.72;;;9.77;69.86
13235;BME280;6683;48.506;9.050;2023-12-07T11:36:04;98383.91;;;10.25;69.87
13235;BME280;6683;48.506;9.050;2023-12-07T11:39:16;98373.00;;;10.58;69.06
13235;BME280;6683;48.506;9.050;2023-12-07T11:42:20;98358.44;;;10.91;68.62
13235;BME280;6683;48.506;9.050;2023-12-07T11:45:46;98349.06;;;11.24;68.33
13235;BME280;6683;48.506;9.050;2023-12-07T11:48:49;98349.22;;;11.58;67.66
13235;BME280;6683;48.506;9.050;2023-12-07T11:51:53;98338.78;;;11.71;67.45
13235;BME280;6683;48.506;9.050;2023-12-07T11:54:55;98337.19;;;11.56;67.03
13235;BME280;6683;48.506;9.050;2023-12-07T11:57:57;98326.84;;;11.18;67.40
13235;BME280;6683;48.506;9.050;2023-12-07T12:00:59;98312.38;;;10.79;67.62
13235;BME280;6683;48.506;9.050;2023-12-07T12:04:01;98317.56;;;10.43;68.40
13235;BME280;6683;48.506;9.050;2023-12-07T12:07:06;98316.94;;;10.12;68.39
13235;BME280;6683;48.506;9.050;2023-12-07T12:10:08;98315.50;;;9.87;68.94
13235;BME280;6683;48.506;9.050;2023-12-07T12:13:11;98312.25;;;9.62;68.84
13235;BME280;6683;48.506;9.050;2023-12-07T12:16:14;98315.38;;;9.43;69.12
13235;BME280;6683;48.506;9.050;2023-12-07T12:19:16;98315.22;;;9.22;69.53
13235;BME280;6683;48.506;9.050;2023-12-07T12:22:20;98298.56;;;8.99;69.89
13235;BME280;6683;48.506;9.050;2023-12-07T12:25:24;98289.00;;;8.75;70.25
13235;BME280;6683;48.506;9.050;2023-12-07T12:28:29;98285.28;;;8.53;70.46
13235;BME280;6683;48.506;9.050;2023-12-07T12:31:33;98268.94;;;8.35;70.88
13235;BME280;6683;48.506;9.050;2023-12-07T12:34:36;98256.66;;;8.20;71.40
13235;BME280;6683;48.506;9.050;2023-12-07T12:37:40;98251.59;;;8.10;71.59
13235;BME280;6683;48.506;9.050;2023-12-07T12:40:43;98251.59;;;8.02;71.32
13235;BME280;6683;48.506;9.050;2023-12-07T12:43:45;98248.00;;;7.95;71.21
13235;BME280;6683;48.506;9.050;2023-12-07T12:46:47;98232.44;;;7.85;71.23
13235;BME280;6683;48.506;9.050;2023-12-07T12:49:50;98240.53;;;7.76;71.24
13235;BME280;6683;48.506;9.050;2023-12-07T12:52:54;98249.56;;;7.65;71.19
13235;BME280;6683;48.506;9.050;2023-12-07T12:55:56;98233.78;;;7.57;71.71
13235;BME280;6683;48.506;9.050;2023-12-07T12:58:59;98235.63;;;7.49;71.68
13235;BME280;6683;48.506;9.050;2023-12-07T13:02:02;98227.75;;;7.41;72.00
13235;BME280;6683;48.506;9.050;2023-12-07T13:05:06;98226.78;;;7.34;72.45
13235;BME280;6683;48.506;9.050;2023-12-07T13:08:10;98228.59;;;7.33;73.00
13235;BME280;6683;48.506;9.050;2023-12-07T13:11:15;98225.13;;;7.33;73.27
13235;BME280;6683;48.506;9.050;2023-12-07T13:14:17;98220.53;;;7.35;73.55
13235;BME280;6683;48.506;9.050;2023-12-07T13:17:20;98214.97;;;7.38;73.66
13235;BME280;6683;48.506;9.050;2023-12-07T13:20:22;98212.00;;;7.41;73.72
13235;BME280;6683;48.506;9.050;2023-12-07T13:23:25;98225.44;;;7.46;73.90
13235;BME280;6683;48.506;9.050;2023-12-07T13:26:28;98231.19;;;7.49;73.89
13235;BME280;6683;48.506;9.050;2023-12-07T13:29:30;98230.38;;;7.49;73.58
13235;BME280;6683;48.506;9.050;2023-12-07T13:32:33;98234.63;;;7.50;73.83
13235;BME280;6683;48.506;9.050;2023-12-07T13:35:37;98240.22;;;7.55;74.05
13235;BME280;6683;48.506;9.050;2023-12-07T13:38:41;98230.03;;;7.60;74.10
13235;BME280;6683;48.506;9.050;2023-12-07T13:41:43;98221.47;;;7.66;74.21
13235;BME280;6683;48.506;9.050;2023-12-07T13:44:45;98207.84;;;7.70;74.04
13235;BME280;6683;48.506;9.050;2023-12-07T13:47:47;98212.78;;;7.73;73.89
13235;BME280;6683;48.506;9.050;2023-12-07T13:50:49;98214.41;;;7.74;73.96
13235;BME280;6683;48.506;9.050;2023-12-07T13:53:53;98215.03;;;7.76;73.93
13235;BME280;6683;48.506;9.050;2023-12-07T13:56:56;98212.94;;;7.80;74.14
13235;BME280;6683;48.506;9.050;2023-12-07T13:59:58;98203.88;;;7.82;74.12
13235;BME280;6683;48.506;9.050;2023-12-07T14:03:00;98197.47;;;7.85;74.11
13235;BME280;6683;48.506;9.050;2023-12-07T14:06:04;98195.84;;;7.84;73.77
13235;BME280;6683;48.506;9.050;2023-12-07T14:09:07;98205.69;;;7.82;73.66
13235;BME280;6683;48.506;9.050;2023-12-07T14:12:10;98196.50;;;7.78;73.40
13235;BME280;6683;48.506;9.050;2023-12-07T14:15:13;98194.53;;;7.72;73.19
13235;BME280;6683;48.506;9.050;2023-12-07T14:18:16;98198.66;;;7.66;73.44
13235;BME280;6683;48.506;9.050;2023-12-07T14:21:21;98198.50;;;7.60;73.32
13235;BME280;6683;48.506;9.050;2023-12-07T14:24:25;98200.00;;;7.54;73.37
13235;BME280;6683;48.506;9.050;2023-12-07T14:27:27;98191.00;;;7.49;73.21
13235;BME280;6683;48.506;9.050;2023-12-07T14:30:29;98199.50;;;7.43;73.06
13235;BME280;6683;48.506;9.050;2023-12-07T14:33:32;98197.56;;;7.37;73.27
13235;BME280;6683;48.506;9.050;2023-12-07T14:36:34;98188.38;;;7.33;73.25
13235;BME280;6683;48.506;9.050;2023-12-07T14:39:39;98182.16;;;7.25;73.26
13235;BME280;6683;48.506;9.050;2023-12-07T14:42:41;98179.84;;;7.22;73.61
13235;BME280;6683;48.506;9.050;2023-12-07T14:45:43;98171.50;;;7.19;73.42
13235;BME280;6683;48.506;9.050;2023-12-07T14:48:45;98166.44;;;7.17;73.62
13235;BME280;6683;48.506;9.050;2023-12-07T14:51:47;98151.00;;;7.14;73.45
13235;BME280;6683;48.506;9.050;2023-12-07T14:54:51;98148.88;;;7.10;73.61
13235;BME280;6683;48.506;9.050;2023-12-07T14:57:53;98150.84;;;7.08;73.54
13235;BME280;6683;48.506;9.050;2023-12-07T15:00:55;98143.13;;;7.06;73.61
13235;BME280;6683;48.506;9.050;2023-12-07T15:03:57;98141.47;;;7.05;73.72
13235;BME280;6683;48.506;9.050;2023-12-07T15:07:00;98134.63;;;7.04;73.74
13235;BME280;6683;48.506;9.050;2023-12-07T15:10:05;98128.53;;;7.04;73.72
13235;BME280;6683;48.506;9.050;2023-12-07T15:13:07;98124.13;;;7.04;73.91
13235;BME280;6683;48.506;9.050;2023-12-07T15:16:09;98113.78;;;7.03;73.91
13235;BME280;6683;48.506;9.050;2023-12-07T15:19:12;98115.59;;;7.02;73.73
13235;BME280;6683;48.506;9.050;2023-12-07T15:22:14;98120.00;;;7.02;73.93
13235;BME280;6683;48.506;9.050;2023-12-07T15:25:17;98117.69;;;6.99;73.91
13235;BME280;6683;48.506;9.050;2023-12-07T15:28:19;98123.13;;;6.97;73.66
13235;BME280;6683;48.506;9.050;2023-12-07T15:31:22;98124.63;;;6.92;73.30
13235;BME280;6683;48.506;9.050;2023-12-07T15:34:24;98119.19;;;6.85;73.11
13235;BME280;6683;48.506;9.050;2023-12-07T15:37:27;98131.97;;;6.80;73.21
13235;BME280;6683;48.506;9.050;2023-12-07T15:40:31;98127.22;;;6.68;72.64
13235;BME280;6683;48.506;9.050;2023-12-07T15:43:33;98123.13;;;6.57;72.58
13235;BME280;6683;48.506;9.050;2023-12-07T15:46:35;98110.34;;;6.46;73.04
13235;BME280;6683;48.506;9.050;2023-12-07T15:49:37;98105.25;;;6.36;72.63
13235;BME280;6683;48.506;9.050;2023-12-07T15:52:39;98103.63;;;6.27;72.56
13235;BME280;6683;48.506;9.050;2023-12-07T15:55:43;98100.16;;;6.19;72.57
13235;BME280;6683;48.506;9.050;2023-12-07T15:58:45;98095.88;;;6.10;72.69
13235;BME280;6683;48.506;9.050;2023-12-07T16:01:50;98080.59;;;5.97;72.97
13235;BME280;6683;48.506;9.050;2023-12-07T16:04:52;98078.63;;;5.91;72.96
13235;BME280;6683;48.506;9.050;2023-12-07T16:07:54;98069.91;;;5.83;72.47
13235;BME280;6683;48.506;9.050;2023-12-07T16:10:57;98069.22;;;5.73;72.53
13235;BME280;6683;48.506;9.050;2023-12-07T16:14:00;98059.69;;;5.63;72.56
13235;BME280;6683;48.506;9.050;2023-12-07T16:17:04;98061.78;;;5.52;72.22
13235;BME280;6683;48.506;9.050;2023-12-07T16:20:08;98062.88;;;5.41;72.55
13235;BME280;6683;48.506;9.050;2023-12-07T16:23:12;98052.41;;;5.33;73.07
13235;BME280;6683;48.506;9.050;2023-12-07T16:26:15;98055.09;;;5.24;73.03
13235;BME280;6683;48.506;9.050;2023-12-07T16:29:17;98054.13;;;5.17;73.01
13235;BME280;6683;48.506;9.050;2023-12-07T16:32:19;98045.41;;;5.08;73.08
13235;BME280;6683;48.506;9.050;2023-12-07T16:35:22;98039.31;;;5.00;72.92
13235;BME280;6683;48.506;9.050;2023-12-07T16:38:24;98038.13;;;4.94;72.95